createdAt,value
2022-08-16T00:02:56.406Z,68
2022-08-16T00:17:57.404Z,70
2022-08-16T00:32:57.217Z,70
2022-08-16T00:47:56.314Z,70
2022-08-16T01:02:56.311Z,71
2022-08-16T01:17:56.389Z,71
2022-08-16T01:33:01.605Z,72
2022-08-16T01:47:56.244Z,72
2022-08-16T02:02:56.199Z,73
2022-08-16T02:17:56.184Z,74
2022-08-16T02:32:56.160Z,74
2022-08-16T02:48:00.978Z,74
2022-08-16T03:02:56.399Z,74
2022-08-16T03:17:56.057Z,74
2022-08-16T03:32:56.027Z,75
2022-08-16T03:47:58.506Z,76
2022-08-16T04:02:56.005Z,76
2022-08-16T04:17:55.948Z,77
2022-08-16T04:32:55.916Z,78
2022-08-16T04:47:56.322Z,78
2022-08-16T05:02:56.565Z,79
2022-08-16T05:17:58.796Z,80
2022-08-16T05:32:55.820Z,79
2022-08-16T05:47:59.947Z,75
2022-08-16T06:02:55.800Z,71
2022-08-16T06:17:55.742Z,69
2022-08-16T06:32:55.712Z,66
2022-08-16T06:47:56.385Z,64
2022-08-16T07:02:55.990Z,60
2022-08-16T07:17:55.626Z,58
2022-08-16T07:32:55.653Z,55
2022-08-16T07:47:55.576Z,54
2022-08-16T08:02:55.613Z,52
2022-08-16T08:17:55.522Z,50
2022-08-16T08:32:59.867Z,47
2022-08-16T08:47:58.492Z,46
2022-08-16T09:02:55.662Z,46
2022-08-16T09:17:55.424Z,47
2022-08-16T09:32:55.423Z,46
2022-08-16T09:47:56.964Z,45
2022-08-16T10:02:55.519Z,44
2022-08-16T10:17:59.845Z,42
2022-08-16T10:32:55.310Z,42
2022-08-16T10:48:02.716Z,43
2022-08-16T11:02:58.163Z,43
2022-08-16T11:18:48.862Z,43
2022-08-16T11:32:55.203Z,42
2022-08-16T11:47:55.137Z,42
2022-08-16T12:02:55.142Z,41
2022-08-16T12:17:55.082Z,40
2022-08-16T12:32:57.884Z,39
2022-08-16T12:48:10.014Z,38
2022-08-16T13:02:55.046Z,36
2022-08-16T13:17:54.979Z,36
2022-08-16T13:32:54.989Z,36
2022-08-16T13:47:54.925Z,37
2022-08-16T14:02:58.852Z,37
2022-08-16T14:18:15.626Z,38
2022-08-16T14:32:55.179Z,38
2022-08-16T14:47:54.816Z,38
2022-08-16T15:02:54.836Z,39
2022-08-16T15:17:56.451Z,39
2022-08-16T15:32:54.765Z,39
2022-08-16T15:47:55.799Z,38
2022-08-16T16:02:54.717Z,39
2022-08-16T16:17:54.891Z,40
2022-08-16T16:32:54.656Z,41
2022-08-16T16:47:54.789Z,41
2022-08-16T17:02:54.673Z,41
2022-08-16T17:18:00.287Z,42
2022-08-16T17:32:54.946Z,43
2022-08-16T17:47:54.491Z,43
2022-08-16T18:02:54.816Z,42
2022-08-16T18:17:54.437Z,40
2022-08-16T18:32:54.442Z,43
2022-08-16T18:47:54.383Z,45
2022-08-16T19:02:58.773Z,45
2022-08-16T19:17:54.334Z,47
2022-08-16T19:32:54.327Z,48
2022-08-16T19:47:55.564Z,48
2022-08-16T20:02:54.299Z,49
2022-08-16T20:17:54.207Z,50
2022-08-16T20:32:54.207Z,50
2022-08-16T20:47:54.157Z,51
2022-08-16T21:02:54.175Z,51
2022-08-16T21:17:54.098Z,52
2022-08-16T21:32:54.100Z,52
2022-08-16T21:47:54.042Z,54
2022-08-16T22:02:54.210Z,56
2022-08-16T22:17:53.992Z,57
2022-08-16T22:32:53.997Z,59
2022-08-16T22:47:53.952Z,60
2022-08-16T23:02:53.942Z,61
2022-08-16T23:17:53.883Z,63
2022-08-16T23:32:53.897Z,64
2022-08-16T23:47:53.829Z,65
